createdAt,value
2022-09-28T00:00:50.162Z,67.14
2022-09-28T00:06:13.112Z,66.95
2022-09-28T00:11:34.153Z,66.96
2022-09-28T00:16:55.189Z,67.03
2022-09-28T00:22:16.022Z,66.89
2022-09-28T00:27:36.973Z,67.49
2022-09-28T00:32:57.621Z,67.54
2022-09-28T00:38:20.243Z,67.51
2022-09-28T00:43:41.564Z,66.97
2022-09-28T00:49:14.533Z,66.61
2022-09-28T00:54:36.473Z,66.85
2022-09-28T01:00:00.755Z,67.01
2022-09-28T01:05:24.787Z,67.01
2022-09-28T01:10:45.493Z,66.72
2022-09-28T01:16:22.015Z,67.01
2022-09-28T01:21:54.125Z,67.00
2022-09-28T01:27:28.198Z,67.21
2022-09-28T01:32:52.235Z,66.90
2022-09-28T01:38:19.336Z,67.10
2022-09-28T01:43:46.494Z,67.45
2022-09-28T01:49:17.127Z,67.43
2022-09-28T01:54:54.106Z,67.19
2022-09-28T02:00:18.114Z,67.32
2022-09-28T02:05:55.430Z,67.56
2022-09-28T02:11:18.849Z,67.64
2022-09-28T02:16:41.363Z,67.63
2022-09-28T02:22:26.363Z,67.51
2022-09-28T02:28:01.096Z,68.29
2022-09-28T02:33:32.189Z,68.40
2022-09-28T02:38:54.367Z,68.12
2022-09-28T02:44:51.018Z,68.29
2022-09-28T02:50:44.935Z,67.93
2022-09-28T02:56:26.090Z,68.27
2022-09-28T03:02:01.108Z,68.56
2022-09-28T03:07:31.275Z,68.37
2022-09-28T03:12:54.265Z,68.65
2022-09-28T03:18:15.107Z,68.48
2022-09-28T03:23:35.740Z,68.32
2022-09-28T03:28:56.960Z,68.44
2022-09-28T03:34:19.197Z,68.58
2022-09-28T03:39:39.892Z,68.51
2022-09-28T03:45:00.674Z,68.05
2022-09-28T03:50:26.382Z,67.99
2022-09-28T03:55:46.949Z,68.41
2022-09-28T04:01:15.898Z,68.33
2022-09-28T04:06:38.977Z,68.55
2022-09-28T04:12:04.344Z,68.05
2022-09-28T04:17:26.740Z,67.72
2022-09-28T04:22:48.921Z,68.09
2022-09-28T04:28:28.455Z,68.36
2022-09-28T04:33:49.127Z,68.05
2022-09-28T04:39:22.033Z,67.78
2022-09-28T04:44:46.252Z,67.91
2022-09-28T04:50:08.378Z,68.29
2022-09-28T04:56:16.552Z,68.02
2022-09-28T05:01:38.119Z,67.76
2022-09-28T05:06:59.308Z,68.33
2022-09-28T05:12:21.598Z,68.05
2022-09-28T05:17:42.406Z,68.04
2022-09-28T05:23:13.132Z,67.85
2022-09-28T05:28:35.557Z,67.71
2022-09-28T05:34:15.455Z,67.83
2022-09-28T05:39:37.760Z,67.96
2022-09-28T05:44:59.064Z,67.49
2022-09-28T05:50:19.712Z,67.65
2022-09-28T05:55:41.154Z,67.89
2022-09-28T06:01:01.907Z,68.27
2022-09-28T06:06:24.196Z,68.03
2022-09-28T06:11:45.543Z,68.14
2022-09-28T06:17:25.872Z,68.31
2022-09-28T06:23:07.450Z,68.20
2022-09-28T06:28:30.125Z,68.30
2022-09-28T06:33:51.861Z,68.40
2022-09-28T06:39:12.629Z,68.16
2022-09-28T06:44:35.004Z,68.35
2022-09-28T06:50:15.486Z,68.86
2022-09-28T06:55:56.242Z,68.76
2022-09-28T07:01:17.374Z,69.23
2022-09-28T07:06:50.752Z,68.97
2022-09-28T07:12:32.299Z,69.38
2022-09-28T07:18:03.262Z,69.38
2022-09-28T07:23:30.805Z,69.73
2022-09-28T07:29:11.061Z,69.61
2022-09-28T07:34:58.723Z,69.42
2022-09-28T07:40:57.504Z,69.29
2022-09-28T07:46:21.321Z,69.68
2022-09-28T07:51:49.492Z,69.48
2022-09-28T07:57:23.250Z,69.77
2022-09-28T08:02:55.361Z,69.76
2022-09-28T08:08:20.256Z,70.11
2022-09-28T08:13:42.443Z,70.09
2022-09-28T08:19:56.716Z,70.40
2022-09-28T08:25:17.937Z,70.55
2022-09-28T08:30:38.995Z,70.66
2022-09-28T08:36:15.050Z,70.50
2022-09-28T08:42:11.243Z,70.49
2022-09-28T08:48:45.656Z,70.85
2022-09-28T08:54:44.662Z,70.81
2022-09-28T09:00:29.768Z,70.84
2022-09-28T09:06:31.763Z,71.05
2022-09-28T09:12:18.659Z,70.85
2022-09-28T09:18:16.617Z,71.18
2022-09-28T09:23:59.208Z,71.60
2022-09-28T09:29:32.617Z,71.96
2022-09-28T09:35:17.463Z,71.19
2022-09-28T09:41:32.143Z,71.78
2022-09-28T09:47:18.112Z,71.35
2022-09-28T09:52:58.286Z,71.70
2022-09-28T09:58:44.785Z,71.29
2022-09-28T10:04:40.987Z,71.66
2022-09-28T10:10:21.586Z,71.90
2022-09-28T10:15:49.940Z,71.71
2022-09-28T10:21:21.696Z,72.06
2022-09-28T10:26:56.348Z,72.09
2022-09-28T10:32:24.459Z,71.82
2022-09-28T10:37:57.312Z,71.82
2022-09-28T10:44:10.289Z,72.04
2022-09-28T10:49:53.737Z,71.89
2022-09-28T10:55:21.022Z,72.20
2022-09-28T11:00:43.490Z,71.69
2022-09-28T11:06:09.996Z,71.88
2022-09-28T11:11:43.989Z,72.05
2022-09-28T11:17:18.507Z,72.06
2022-09-28T11:22:42.440Z,72.13
2022-09-28T11:28:05.692Z,72.19
2022-09-28T11:33:34.881Z,72.27
2022-09-28T11:39:46.119Z,71.94
2022-09-28T11:45:29.658Z,71.96
2022-09-28T11:50:57.413Z,72.00
2022-09-28T11:56:35.531Z,72.40
2022-09-28T12:02:32.184Z,72.55
2022-09-28T12:08:07.953Z,72.27
2022-09-28T12:13:51.597Z,72.46
2022-09-28T12:19:27.860Z,72.73
2022-09-28T12:24:56.739Z,72.72
2022-09-28T12:30:22.497Z,73.01
2022-09-28T12:36:07.315Z,73.40
2022-09-28T12:41:59.670Z,73.04
2022-09-28T12:47:32.388Z,72.81
2022-09-28T12:52:53.145Z,72.36
2022-09-28T12:58:41.301Z,72.05
2022-09-28T13:04:47.351Z,71.70
2022-09-28T13:10:32.824Z,71.63
2022-09-28T13:16:06.435Z,71.97
2022-09-28T13:21:35.252Z,71.51
2022-09-28T13:26:59.965Z,71.72
2022-09-28T13:32:24.356Z,71.45
2022-09-28T13:37:45.625Z,70.87
2022-09-28T13:43:21.335Z,70.54
2022-09-28T13:49:10.015Z,70.67
2022-09-28T13:54:52.744Z,70.38
2022-09-28T14:00:29.462Z,70.11
2022-09-28T14:06:08.394Z,69.16
2022-09-28T14:11:34.414Z,70.31
2022-09-28T14:17:23.623Z,70.37
2022-09-28T14:23:09.131Z,70.46
2022-09-28T14:28:37.143Z,70.98
2022-09-28T14:34:01.442Z,71.15
2022-09-28T14:39:50.578Z,70.94
2022-09-28T14:45:11.756Z,71.04
2022-09-28T14:50:34.060Z,71.09
2022-09-28T14:55:59.891Z,70.56
2022-09-28T15:01:23.132Z,70.84
2022-09-28T15:06:46.441Z,70.50
2022-09-28T15:12:13.151Z,70.13
2022-09-28T15:17:40.416Z,70.07
2022-09-28T15:23:01.121Z,69.85
2022-09-28T15:28:24.017Z,69.81
2022-09-28T15:34:03.612Z,69.70
2022-09-28T15:39:34.166Z,70.10
2022-09-28T15:45:26.902Z,69.75
2022-09-28T15:51:06.194Z,70.00
2022-09-28T15:56:28.327Z,69.67
2022-09-28T16:01:49.490Z,69.90
2022-09-28T16:07:10.479Z,69.95
2022-09-28T16:12:40.715Z,69.84
2022-09-28T16:18:04.654Z,69.87
2022-09-28T16:23:34.358Z,70.20
2022-09-28T16:28:55.524Z,69.87
2022-09-28T16:34:20.143Z,69.51
2022-09-28T16:39:41.336Z,69.60
2022-09-28T16:45:05.362Z,69.22
2022-09-28T16:50:26.345Z,69.58
2022-09-28T16:55:49.900Z,69.43
2022-09-28T17:01:12.554Z,69.25
2022-09-28T17:06:33.545Z,69.45
2022-09-28T17:11:57.311Z,69.21
2022-09-28T17:17:19.555Z,69.01
2022-09-28T17:22:40.322Z,69.19
2022-09-28T17:28:01.469Z,69.24
2022-09-28T17:33:22.341Z,69.20
2022-09-28T17:38:44.296Z,68.85
2022-09-28T17:44:06.466Z,69.22
2022-09-28T17:49:28.058Z,68.71
2022-09-28T17:54:48.858Z,68.60
2022-09-28T18:00:13.470Z,68.85
2022-09-28T18:05:37.034Z,68.70
2022-09-28T18:10:58.143Z,68.25
2022-09-28T18:16:22.699Z,68.41
2022-09-28T18:21:46.451Z,68.21
2022-09-28T18:27:07.012Z,70.83
2022-09-28T18:32:28.099Z,70.44
2022-09-28T18:37:49.910Z,71.00
2022-09-28T18:43:10.884Z,68.88
2022-09-28T18:48:31.657Z,68.13
2022-09-28T18:53:52.468Z,67.89
2022-09-28T18:59:14.162Z,68.29
2022-09-28T19:04:35.271Z,67.95
2022-09-28T19:09:58.113Z,68.27
2022-09-28T19:15:22.868Z,68.19
2022-09-28T19:20:44.677Z,68.10
2022-09-28T19:26:08.527Z,68.32
2022-09-28T19:31:31.099Z,68.32
2022-09-28T19:36:52.199Z,68.11
2022-09-28T19:42:12.918Z,67.90
2022-09-28T19:47:33.996Z,67.55
2022-09-28T19:52:55.043Z,67.69
2022-09-28T19:58:15.736Z,67.70
2022-09-28T20:03:38.211Z,67.91
2022-09-28T20:08:58.802Z,68.08
2022-09-28T20:14:20.171Z,67.72
2022-09-28T20:19:42.547Z,67.50
2022-09-28T20:25:03.690Z,67.21
2022-09-28T20:30:24.439Z,67.52
2022-09-28T20:35:46.934Z,68.18
2022-09-28T20:41:08.613Z,67.67
2022-09-28T20:46:30.248Z,67.95
2022-09-28T20:51:51.292Z,68.02
2022-09-28T20:57:17.837Z,67.71
2022-09-28T21:02:40.575Z,67.61
2022-09-28T21:08:05.104Z,68.07
2022-09-28T21:13:26.807Z,67.18
2022-09-28T21:18:48.190Z,67.40
2022-09-28T21:24:09.329Z,67.20
2022-09-28T21:29:30.304Z,68.00
2022-09-28T21:34:51.079Z,67.86
2022-09-28T21:40:11.753Z,67.41
2022-09-28T21:45:33.629Z,67.50
2022-09-28T21:50:58.840Z,67.79
2022-09-28T21:56:20.350Z,67.84
2022-09-28T22:01:42.844Z,68.15
2022-09-28T22:07:03.839Z,67.96
2022-09-28T22:12:24.527Z,67.49
2022-09-28T22:17:45.168Z,67.88
2022-09-28T22:23:06.321Z,67.60
2022-09-28T22:28:28.131Z,68.01
2022-09-28T22:33:49.259Z,68.23
2022-09-28T22:39:10.204Z,68.85
2022-09-28T22:44:31.199Z,68.96
2022-09-28T22:49:52.595Z,68.30
2022-09-28T22:55:13.967Z,67.98
2022-09-28T23:00:34.961Z,67.79
2022-09-28T23:05:58.713Z,68.50
2022-09-28T23:11:20.025Z,68.01
2022-09-28T23:16:40.698Z,67.96
2022-09-28T23:22:01.745Z,68.11
2022-09-28T23:27:22.703Z,68.17
2022-09-28T23:32:43.864Z,67.93
2022-09-28T23:38:04.594Z,67.80
2022-09-28T23:43:25.421Z,68.20
2022-09-28T23:48:50.190Z,67.93
2022-09-28T23:54:10.787Z,67.60
2022-09-28T23:59:31.580Z,67.45
